TimeCST,TemperatureF,Dew PointF,Humidity,Sea Level PressureIn,VisibilityMPH,Wind Direction,Wind SpeedMPH,Gust SpeedMPH,PrecipitationIn,Events,Conditions,WindDirDegrees,DateUTC
12:53 AM,14.0,1.0,56,30.29,10.0,NW,8.1,-,N/A,,Clear,310,2012-12-10 06:53:00
1:53 AM,12.9,1.0,59,30.27,10.0,NW,6.9,-,N/A,,Clear,320,2012-12-10 07:53:00
2:53 AM,12.9,1.0,59,30.25,10.0,NW,5.8,-,N/A,,Clear,310,2012-12-10 08:53:00
3:53 AM,10.9,1.0,64,30.23,10.0,WNW,8.1,-,N/A,,Clear,300,2012-12-10 09:53:00
4:53 AM,10.0,1.0,67,30.22,10.0,West,8.1,-,N/A,,Clear,280,2012-12-10 10:53:00
5:53 AM,9.0,-0.9,64,30.21,10.0,West,9.2,-,N/A,,Clear,270,2012-12-10 11:53:00
7:53 AM,8.1,1.0,73,30.21,10.0,WSW,9.2,-,N/A,,Clear,240,2012-12-10 13:53:00
8:53 AM,15.1,3.9,61,30.19,10.0,WSW,6.9,-,N/A,,Clear,250,2012-12-10 14:53:00
9:53 AM,27.0,7.0,43,30.15,10.0,WSW,13.8,18.4,N/A,,Clear,240,2012-12-10 15:53:00
10:53 AM,33.1,3.0,28,30.12,10.0,SW,16.1,-,N/A,,Clear,230,2012-12-10 16:53:00
11:53 AM,37.0,-2.0,19,30.08,10.0,WSW,13.8,-,N/A,,Clear,240,2012-12-10 17:53:00
12:53 PM,39.9,-6.0,14,30.02,10.0,WSW,15.0,23.0,N/A,,Clear,240,2012-12-10 18:53:00
1:53 PM,42.1,5.0,22,29.99,10.0,WSW,12.7,-,N/A,,Clear,250,2012-12-10 19:53:00
2:53 PM,43.0,5.0,21,29.95,10.0,WSW,13.8,-,N/A,,Clear,240,2012-12-10 20:53:00
3:53 PM,44.1,3.9,19,29.94,10.0,SW,13.8,-,N/A,,Clear,230,2012-12-10 21:53:00
4:53 PM,42.1,3.9,21,29.95,10.0,SSW,6.9,-,N/A,,Clear,210,2012-12-10 22:53:00
5:53 PM,33.1,3.0,28,29.97,10.0,SSW,8.1,-,N/A,,Clear,200,2012-12-10 23:53:00
6:53 PM,28.9,3.0,33,29.99,10.0,South,4.6,-,N/A,,Clear,190,2012-12-11 00:53:00
7:53 PM,25.0,3.0,39,30.01,10.0,SSW,5.8,-,N/A,,Clear,200,2012-12-11 01:53:00
8:53 PM,23.0,5.0,46,30.01,10.0,Calm,Calm,-,N/A,,Clear,0,2012-12-11 02:53:00
9:53 PM,23.0,6.1,48,30.00,10.0,SSW,6.9,-,N/A,,Clear,210,2012-12-11 03:53:00
10:53 PM,23.0,9.0,55,29.99,10.0,SW,4.6,-,N/A,,Clear,230,2012-12-11 04:53:00
11:53 PM,21.0,8.1,57,30.00,10.0,SW,3.5,-,N/A,,Mostly Cloudy,230,2012-12-11 05:53:00